Time;durP1;ratioP1;P1;durP2;ratioP2;P2;SDS_P1;SDS_P2;PMS_P1;PMS_P2;Temp;Humidity;BMP_temperature;BMP_pressure;BME280_temperature;BME280_humidity;BME280_pressure;Samples;Min_cycle;Max_cycle;Signal;HPM_P1;HPM_P2
2023/09/02 00:01:23;;;;;;;25.00;23.07;;;;;;;;;;5092281;28;20579;-78
2023/09/02 00:03:50;;;;;;;27.63;24.60;;;;;;;;;;5079638;28;20484;-79
2023/09/02 00:06:17;;;;;;;65.17;28.70;;;;;;;;;;5075614;28;20455;-78
2023/09/02 00:08:44;;;;;;;44.90;25.20;;;;;;;;;;5075757;28;20533;-79
2023/09/02 00:11:13;;;;;;;72.50;29.53;;;;;;;;;;5075017;28;20495;-79
2023/09/02 00:13:40;;;;;;;56.20;29.37;;;;;;;;;;5074254;28;20486;-78
2023/09/02 00:16:09;;;;;;;83.67;30.20;;;;;;;;;;5075638;28;20450;-79
2023/09/02 00:18:36;;;;;;;140.13;35.07;;;;;;;;;;5074702;28;20949;-79
2023/09/02 00:21:03;;;;;;;165.80;35.27;;;;;;;;;;5075378;28;20493;-79
2023/09/02 00:23:31;;;;;;;247.20;37.97;;;;;;;;;;5075215;28;20466;-79
2023/09/02 00:25:58;;;;;;;88.67;31.67;;;;;;;;;;5075314;28;20469;-79
2023/09/02 00:28:25;;;;;;;84.20;33.73;;;;;;;;;;5089806;28;20449;-79
2023/09/02 00:30:54;;;;;;;107.27;34.13;;;;;;;;;;5098452;28;20416;-79
2023/09/02 00:33:23;;;;;;;142.77;35.10;;;;;;;;;;5098508;28;20468;-79
2023/09/02 00:35:50;;;;;;;191.33;37.90;;;;;;;;;;5099630;28;20456;-79
2023/09/02 00:38:17;;;;;;;153.80;34.23;;;;;;;;;;5098724;28;20488;-79
2023/09/02 00:40:49;;;;;;;93.37;35.70;;;;;;;;;;5095445;28;20484;-79
2023/09/02 00:43:16;;;;;;;146.47;36.57;;;;;;;;;;5097752;28;20464;-78
2023/09/02 00:45:43;;;;;;;187.80;40.33;;;;;;;;;;5095195;28;20448;-79
2023/09/02 00:48:10;;;;;;;133.23;38.00;;;;;;;;;;5096016;28;20460;-78
2023/09/02 00:50:39;;;;;;;157.10;40.10;;;;;;;;;;5094659;28;20441;-79
2023/09/02 00:53:06;;;;;;;73.73;35.37;;;;;;;;;;5094883;28;20463;-79
2023/09/02 00:55:33;;;;;;;95.63;37.90;;;;;;;;;;5095636;28;21119;-79
2023/09/02 00:58:00;;;;;;;103.37;38.90;;;;;;;;;;5094880;28;20457;-79
2023/09/02 01:00:27;;;;;;;148.60;37.27;;;;;;;;;;5092601;28;20488;-78
2023/09/02 01:02:54;;;;;;;179.20;39.83;;;;;;;;;;5094079;28;20464;-79
2023/09/02 01:05:22;;;;;;;251.27;42.90;;;;;;;;;;5094162;28;20411;-79
2023/09/02 01:07:51;;;;;;;156.37;36.37;;;;;;;;;;5095208;28;20423;-79
2023/09/02 01:10:19;;;;;;;109.97;36.23;;;;;;;;;;5093986;28;20422;-79
2023/09/02 01:12:46;;;;;;;89.80;37.40;;;;;;;;;;5095241;28;20478;-79
2023/09/02 01:15:13;;;;;;;130.63;40.03;;;;;;;;;;5094354;28;20449;-79
2023/09/02 01:17:40;;;;;;;101.70;35.60;;;;;;;;;;5094362;28;20499;-80
2023/09/02 01:20:09;;;;;;;127.60;38.90;;;;;;;;;;5093013;28;20843;-79
2023/09/02 01:22:44;;;;;;;47.90;35.03;;;;;;;;;;5093988;28;20470;-79
2023/09/02 01:25:26;;;;;;;72.77;37.63;;;;;;;;;;5093807;28;20425;-79
2023/09/02 01:27:56;;;;;;;62.53;34.70;;;;;;;;;;5093640;28;20408;-79
2023/09/02 01:30:26;;;;;;;91.77;35.77;;;;;;;;;;5093507;28;20456;-79
2023/09/02 01:32:54;;;;;;;81.23;37.40;;;;;;;;;;5093520;28;20592;-79
2023/09/02 01:35:22;;;;;;;85.63;35.23;;;;;;;;;;5093440;28;20441;-79
2023/09/02 01:37:52;;;;;;;47.73;33.03;;;;;;;;;;5092982;28;20443;-78
2023/09/02 01:40:25;;;;;;;75.93;36.83;;;;;;;;;;5093054;28;20455;-78
2023/09/02 01:42:52;;;;;;;84.47;33.80;;;;;;;;;;5093561;28;20451;-80
2023/09/02 01:45:22;;;;;;;38.13;34.40;;;;;;;;;;5093530;28;20498;-79
2023/09/02 01:47:50;;;;;;;41.20;35.00;;;;;;;;;;5093853;28;20423;-79
2023/09/02 01:50:18;;;;;;;81.63;37.47;;;;;;;;;;5092764;28;20441;-79
2023/09/02 01:52:46;;;;;;;68.23;35.10;;;;;;;;;;5085665;28;20515;-79
2023/09/02 01:55:13;;;;;;;54.67;35.63;;;;;;;;;;5073454;28;20435;-79
2023/09/02 01:57:41;;;;;;;67.43;36.10;;;;;;;;;;5073236;28;20534;-79
2023/09/02 02:00:09;;;;;;;94.97;36.43;;;;;;;;;;5072497;28;20492;-79
2023/09/02 02:02:39;;;;;;;60.40;37.03;;;;;;;;;;5073075;28;20496;-79
2023/09/02 02:05:07;;;;;;;84.20;33.10;;;;;;;;;;5072619;28;20503;-79
2023/09/02 02:07:36;;;;;;;98.23;36.93;;;;;;;;;;5072523;28;20544;-79
2023/09/02 02:10:05;;;;;;;73.60;38.27;;;;;;;;;;5071885;28;20458;-79
2023/09/02 02:12:33;;;;;;;84.47;33.17;;;;;;;;;;5072394;28;20470;-78
2023/09/02 02:15:00;;;;;;;89.53;34.90;;;;;;;;;;5072242;28;20445;-79
2023/09/02 02:17:28;;;;;;;121.83;36.10;;;;;;;;;;5072480;28;20445;-78
2023/09/02 02:19:56;;;;;;;132.07;38.30;;;;;;;;;;5072146;28;20531;-79
2023/09/02 02:22:23;;;;;;;95.83;35.87;;;;;;;;;;5072514;28;20441;-79
2023/09/02 02:24:50;;;;;;;77.93;34.87;;;;;;;;;;5072377;28;20500;-79
2023/09/02 02:27:17;;;;;;;97.97;33.90;;;;;;;;;;5072406;28;20442;-79
2023/09/02 02:29:44;;;;;;;110.03;34.00;;;;;;;;;;5071631;28;20481;-80
2023/09/02 02:32:11;;;;;;;164.60;37.77;;;;;;;;;;5072031;28;20965;-79
2023/09/02 02:34:38;;;;;;;86.27;34.40;;;;;;;;;;5072243;28;20964;-79
2023/09/02 02:37:07;;;;;;;108.93;34.87;;;;;;;;;;5072105;28;20420;-79
2023/09/02 02:39:34;;;;;;;160.00;38.27;;;;;;;;;;5072282;28;20420;-79
2023/09/02 02:42:01;;;;;;;209.43;38.60;;;;;;;;;;5071916;28;20906;-79
2023/09/02 02:44:28;;;;;;;155.33;37.67;;;;;;;;;;5072219;28;20445;-79
2023/09/02 02:46:55;;;;;;;86.17;32.53;;;;;;;;;;5072507;28;20425;-78
2023/09/02 02:49:22;;;;;;;146.03;36.40;;;;;;;;;;5072340;28;20446;-79
2023/09/02 02:51:49;;;;;;;224.17;38.37;;;;;;;;;;5071558;28;20452;-79
2023/09/02 02:54:17;;;;;;;189.13;36.67;;;;;;;;;;5072431;28;20432;-79
2023/09/02 02:56:45;;;;;;;88.53;33.67;;;;;;;;;;5073806;28;20445;-79
2023/09/02 02:59:12;;;;;;;91.40;34.67;;;;;;;;;;5073613;28;20453;-79
2023/09/02 03:01:39;;;;;;;64.00;31.70;;;;;;;;;;5073342;28;20443;-79
2023/09/02 03:04:06;;;;;;;77.90;34.53;;;;;;;;;;5072732;28;20474;-79
2023/09/02 03:06:33;;;;;;;65.20;33.07;;;;;;;;;;5074277;28;20434;-79
2023/09/02 03:09:00;;;;;;;179.77;41.57;;;;;;;;;;5076699;28;20972;-79
2023/09/02 03:11:28;;;;;;;92.83;35.00;;;;;;;;;;5071515;28;20450;-79
2023/09/02 03:13:56;;;;;;;88.73;36.10;;;;;;;;;;5072560;28;20466;-79
2023/09/02 03:16:23;;;;;;;157.33;39.93;;;;;;;;;;5072681;28;20481;-79
2023/09/02 03:18:50;;;;;;;137.33;38.10;;;;;;;;;;5072840;28;20478;-78
2023/09/02 03:21:17;;;;;;;134.30;36.43;;;;;;;;;;5072041;28;20481;-78
2023/09/02 03:23:44;;;;;;;119.60;37.67;;;;;;;;;;5072891;28;20447;-79
2023/09/02 03:26:12;;;;;;;109.23;37.70;;;;;;;;;;5076182;28;20428;-79
2023/09/02 03:28:40;;;;;;;83.93;36.20;;;;;;;;;;5076021;28;20445;-79
2023/09/02 03:31:08;;;;;;;64.73;38.47;;;;;;;;;;5075349;28;20798;-79
2023/09/02 03:33:35;;;;;;;73.43;35.07;;;;;;;;;;5076590;28;20440;-79
2023/09/02 03:36:02;;;;;;;111.57;37.63;;;;;;;;;;5076611;28;20416;-79
2023/09/02 03:38:29;;;;;;;72.53;36.93;;;;;;;;;;5076027;28;20457;-79
2023/09/02 03:40:56;;;;;;;78.63;39.40;;;;;;;;;;5075425;28;20491;-79
2023/09/02 03:43:23;;;;;;;84.97;37.60;;;;;;;;;;5075963;28;20471;-79
2023/09/02 03:45:52;;;;;;;56.33;37.63;;;;;;;;;;5076140;28;20457;-79
2023/09/02 03:48:19;;;;;;;71.10;36.07;;;;;;;;;;5075601;28;20942;-79
2023/09/02 03:51:03;;;;;;;67.83;35.27;;;;;;;;;;5075451;28;20466;-79
2023/09/02 03:53:31;;;;;;;60.10;36.70;;;;;;;;;;5075738;28;20840;-78
2023/09/02 03:55:58;;;;;;;64.37;35.17;;;;;;;;;;5075933;28;20415;-79
2023/09/02 03:58:25;;;;;;;68.17;36.27;;;;;;;;;;5075491;28;20462;-79
2023/09/02 04:00:53;;;;;;;58.60;36.63;;;;;;;;;;5075079;28;20467;-79
2023/09/02 04:03:21;;;;;;;75.97;38.80;;;;;;;;;;5075640;28;20522;-79
2023/09/02 04:05:48;;;;;;;78.43;38.37;;;;;;;;;;5075251;28;20439;-79
2023/09/02 04:08:16;;;;;;;67.60;37.50;;;;;;;;;;5075746;28;20936;-79
2023/09/02 04:10:43;;;;;;;72.40;37.13;;;;;;;;;;5074977;28;20424;-78
2023/09/02 04:13:11;;;;;;;73.83;39.57;;;;;;;;;;5075119;28;20444;-79
2023/09/02 04:15:38;;;;;;;54.13;36.53;;;;;;;;;;5075465;28;20412;-79
2023/09/02 04:18:06;;;;;;;87.60;37.17;;;;;;;;;;5075238;28;20416;-79
2023/09/02 04:20:36;;;;;;;58.97;37.40;;;;;;;;;;5074381;28;20942;-79
2023/09/02 04:23:03;;;;;;;46.53;36.20;;;;;;;;;;5075003;28;20469;-79
2023/09/02 04:25:30;;;;;;;69.10;39.60;;;;;;;;;;5074601;28;20507;-79
2023/09/02 04:27:57;;;;;;;65.10;36.50;;;;;;;;;;5074909;28;20421;-78
2023/09/02 04:30:25;;;;;;;62.67;35.90;;;;;;;;;;5074373;28;20424;-79
2023/09/02 04:32:52;;;;;;;67.43;38.80;;;;;;;;;;5075101;28;21007;-79
2023/09/02 04:35:20;;;;;;;55.87;35.70;;;;;;;;;;5075062;28;20449;-78
2023/09/02 04:37:47;;;;;;;74.20;36.57;;;;;;;;;;5074889;28;20450;-79
2023/09/02 04:40:15;;;;;;;100.67;38.10;;;;;;;;;;5074445;28;20476;-79
2023/09/02 04:42:42;;;;;;;57.83;36.20;;;;;;;;;;5074864;28;20542;-78
2023/09/02 04:45:11;;;;;;;57.27;36.30;;;;;;;;;;5074379;28;20454;-79
2023/09/02 04:47:38;;;;;;;74.53;38.10;;;;;;;;;;5074047;28;20421;-79
2023/09/02 04:50:05;;;;;;;78.40;38.90;;;;;;;;;;5073954;28;20423;-79
2023/09/02 04:52:34;;;;;;;59.17;35.70;;;;;;;;;;5074654;28;20440;-79
2023/09/02 04:55:01;;;;;;;61.23;36.17;;;;;;;;;;5074600;28;20432;-79
2023/09/02 04:57:28;;;;;;;55.10;35.90;;;;;;;;;;5074776;28;20461;-79
2023/09/02 04:59:55;;;;;;;50.27;35.03;;;;;;;;;;5073783;28;20431;-79
2023/09/02 05:02:22;;;;;;;70.47;35.60;;;;;;;;;;5074327;28;20483;-79
2023/09/02 05:04:49;;;;;;;82.13;37.07;;;;;;;;;;5073788;28;20916;-79
2023/09/02 05:07:16;;;;;;;69.13;38.73;;;;;;;;;;5073933;28;20424;-78
2023/09/02 05:09:44;;;;;;;73.63;39.80;;;;;;;;;;5073395;28;20970;-79
2023/09/02 05:12:11;;;;;;;82.87;37.83;;;;;;;;;;5073903;28;20448;-79
2023/09/02 05:14:40;;;;;;;82.57;38.60;;;;;;;;;;5073962;28;20758;-79
2023/09/02 05:17:07;;;;;;;67.07;37.77;;;;;;;;;;5074497;28;20904;-80
2023/09/02 05:19:34;;;;;;;103.00;40.50;;;;;;;;;;5073801;28;20974;-79
2023/09/02 05:22:02;;;;;;;77.47;38.27;;;;;;;;;;5073554;28;20506;-79
2023/09/02 05:24:29;;;;;;;99.53;41.67;;;;;;;;;;5073931;28;20450;-79
2023/09/02 05:26:58;;;;;;;85.27;40.20;;;;;;;;;;5073587;28;20994;-79
2023/09/02 05:29:25;;;;;;;58.10;39.07;;;;;;;;;;5073800;28;20445;-79
2023/09/02 05:31:52;;;;;;;56.67;36.70;;;;;;;;;;5073658;28;20507;-79
2023/09/02 05:34:19;;;;;;;51.70;37.43;;;;;;;;;;5073920;28;20445;-79
2023/09/02 05:36:46;;;;;;;45.00;34.87;;;;;;;;;;5073414;28;20908;-79
2023/09/02 05:39:13;;;;;;;43.97;36.33;;;;;;;;;;5073565;28;20444;-79
2023/09/02 05:41:40;;;;;;;45.30;34.67;;;;;;;;;;5073363;28;20464;-79
2023/09/02 05:44:09;;;;;;;47.97;35.30;;;;;;;;;;5073679;28;20472;-79
2023/09/02 05:46:36;;;;;;;48.50;36.20;;;;;;;;;;5077083;28;20447;-79
2023/09/02 05:49:03;;;;;;;47.23;37.93;;;;;;;;;;5079254;28;20435;-79
2023/09/02 05:51:30;;;;;;;48.53;36.67;;;;;;;;;;5072243;28;20413;-79
2023/09/02 05:53:57;;;;;;;43.27;36.00;;;;;;;;;;5075308;28;20451;-81
2023/09/02 05:56:25;;;;;;;41.60;33.83;;;;;;;;;;5075100;28;20463;-80
2023/09/02 05:58:52;;;;;;;36.90;33.10;;;;;;;;;;5074338;28;20485;-81
2023/09/02 06:01:20;;;;;;;37.93;34.33;;;;;;;;;;5075053;28;20891;-81
2023/09/02 06:03:47;;;;;;;35.27;31.90;;;;;;;;;;5074217;28;20455;-81
2023/09/02 06:06:15;;;;;;;37.17;33.27;;;;;;;;;;5075477;28;20453;-81
2023/09/02 06:08:42;;;;;;;36.83;32.97;;;;;;;;;;5076589;28;20457;-81
2023/09/02 06:11:09;;;;;;;33.07;29.93;;;;;;;;;;5075340;28;20431;-81
2023/09/02 06:13:36;;;;;;;36.53;33.03;;;;;;;;;;5076246;28;20445;-81
2023/09/02 06:16:04;;;;;;;35.30;32.00;;;;;;;;;;5094349;28;20881;-81
2023/09/02 06:18:33;;;;;;;35.43;32.07;;;;;;;;;;5095180;28;20435;-81
2023/09/02 06:21:00;;;;;;;34.40;31.10;;;;;;;;;;5094185;28;20937;-80
2023/09/02 06:23:28;;;;;;;35.07;31.73;;;;;;;;;;5094787;28;20475;-81
2023/09/02 06:25:58;;;;;;;34.80;31.40;;;;;;;;;;5092030;28;20483;-81
2023/09/02 06:28:25;;;;;;;34.07;30.90;;;;;;;;;;5094269;28;20445;-81
2023/09/02 06:30:52;;;;;;;35.43;32.13;;;;;;;;;;5094641;28;20456;-81
2023/09/02 06:33:21;;;;;;;33.70;30.50;;;;;;;;;;5095080;28;20471;-81
2023/09/02 06:35:49;;;;;;;35.80;32.20;;;;;;;;;;5094926;28;20481;-81
2023/09/02 06:38:18;;;;;;;34.03;30.70;;;;;;;;;;5094974;28;20456;-81
2023/09/02 06:40:45;;;;;;;38.63;34.90;;;;;;;;;;5094325;28;20451;-81
2023/09/02 06:43:12;;;;;;;37.27;33.60;;;;;;;;;;5092665;28;20499;-81
2023/09/02 06:45:40;;;;;;;34.20;30.93;;;;;;;;;;5086703;28;20453;-82
2023/09/02 06:48:08;;;;;;;34.67;31.43;;;;;;;;;;5082684;28;20866;-83
2023/09/02 06:50:35;;;;;;;35.07;31.63;;;;;;;;;;5077018;28;20424;-79
2023/09/02 06:53:03;;;;;;;34.23;30.93;;;;;;;;;;5092739;28;20507;-81
2023/09/02 06:55:31;;;;;;;33.43;30.10;;;;;;;;;;5084619;28;20462;-82
2023/09/02 06:57:58;;;;;;;31.67;28.77;;;;;;;;;;5079466;28;20432;-81
2023/09/02 07:00:25;;;;;;;36.23;32.40;;;;;;;;;;5080486;28;20461;-82
2023/09/02 07:02:52;;;;;;;34.60;31.20;;;;;;;;;;5092672;28;20484;-81
2023/09/02 07:05:19;;;;;;;39.43;34.17;;;;;;;;;;5095193;28;20493;-80
2023/09/02 07:07:46;;;;;;;36.43;32.63;;;;;;;;;;5085139;28;20427;-82
2023/09/02 07:10:15;;;;;;;38.27;34.23;;;;;;;;;;5078678;28;20436;-81
2023/09/02 07:12:43;;;;;;;40.43;36.00;;;;;;;;;;5089751;28;20470;-81
2023/09/02 07:15:11;;;;;;;37.80;34.17;;;;;;;;;;5092098;28;20445;-80
2023/09/02 07:17:38;;;;;;;36.03;32.27;;;;;;;;;;5097719;27;20835;-82
2023/09/02 07:20:06;;;;;;;38.70;32.67;;;;;;;;;;5097506;28;20427;-81
2023/09/02 07:22:33;;;;;;;36.03;32.50;;;;;;;;;;5097050;28;20484;-81
2023/09/02 07:25:00;;;;;;;37.73;33.43;;;;;;;;;;5094726;28;20456;-81
2023/09/02 07:27:28;;;;;;;37.00;33.13;;;;;;;;;;5082760;28;20478;-81
2023/09/02 07:29:55;;;;;;;36.53;33.03;;;;;;;;;;5090511;28;20468;-82
2023/09/02 07:32:22;;;;;;;33.97;30.50;;;;;;;;;;5082995;28;20455;-82
2023/09/02 07:34:49;;;;;;;37.63;33.57;;;;;;;;;;5099305;28;20459;-81
2023/09/02 07:37:16;;;;;;;36.27;32.10;;;;;;;;;;5091747;28;20481;-84
2023/09/02 07:39:44;;;;;;;35.77;32.30;;;;;;;;;;5084141;28;20455;-84
2023/09/02 07:42:11;;;;;;;36.30;32.67;;;;;;;;;;5088149;28;20464;-83
2023/09/02 07:44:39;;;;;;;35.63;32.20;;;;;;;;;;5079291;28;20428;-84
2023/09/02 07:47:06;;;;;;;36.77;32.90;;;;;;;;;;5080991;28;20937;-83
2023/09/02 07:49:33;;;;;;;39.27;34.83;;;;;;;;;;5092639;28;20928;-83
2023/09/02 07:52:01;;;;;;;37.60;32.97;;;;;;;;;;5100293;28;20452;-83
2023/09/02 07:54:28;;;;;;;37.40;33.70;;;;;;;;;;5099724;28;20467;-84
2023/09/02 07:56:55;;;;;;;38.40;34.50;;;;;;;;;;5100118;28;20422;-83
2023/09/02 07:59:22;;;;;;;35.07;31.70;;;;;;;;;;5100334;28;20411;-83
2023/09/02 08:01:50;;;;;;;37.80;33.33;;;;;;;;;;5099451;28;20460;-84
2023/09/02 08:04:17;;;;;;;35.70;32.27;;;;;;;;;;5099022;28;20506;-83
2023/09/02 08:06:44;;;;;;;33.33;30.17;;;;;;;;;;5102370;28;20470;-83
2023/09/02 08:09:11;;;;;;;33.57;30.07;;;;;;;;;;5099495;28;20449;-83
2023/09/02 08:11:38;;;;;;;36.57;33.00;;;;;;;;;;5098436;28;20437;-83
2023/09/02 08:14:05;;;;;;;36.00;32.33;;;;;;;;;;5098465;28;20443;-84
2023/09/02 08:16:33;;;;;;;34.97;31.73;;;;;;;;;;5098256;28;20432;-84
2023/09/02 08:19:01;;;;;;;36.20;32.90;;;;;;;;;;5097546;28;20431;-84
2023/09/02 08:21:28;;;;;;;36.47;33.27;;;;;;;;;;5098709;28;20453;-84
2023/09/02 08:23:55;;;;;;;36.40;32.97;;;;;;;;;;5098047;28;20466;-84
2023/09/02 08:26:22;;;;;;;34.90;31.43;;;;;;;;;;5100371;28;20440;-84
2023/09/02 08:28:51;;;;;;;35.23;32.03;;;;;;;;;;5101246;28;20448;-84
2023/09/02 08:31:20;;;;;;;35.07;31.87;;;;;;;;;;5097911;28;20487;-85
2023/09/02 08:33:47;;;;;;;33.30;30.40;;;;;;;;;;5092740;28;20435;-84
2023/09/02 08:36:18;;;;;;;34.03;30.80;;;;;;;;;;5100696;28;20427;-84
2023/09/02 08:38:46;;;;;;;34.50;31.33;;;;;;;;;;5100280;28;20419;-83
2023/09/02 08:41:18;;;;;;;34.50;31.17;;;;;;;;;;5105434;28;20500;-83
2023/09/02 08:43:45;;;;;;;32.90;29.90;;;;;;;;;;5105544;28;21003;-84
2023/09/02 08:46:14;;;;;;;33.63;30.63;;;;;;;;;;5102652;28;20767;-82
2023/09/02 08:48:43;;;;;;;33.07;30.30;;;;;;;;;;5102262;28;20498;-84
2023/09/02 08:51:10;;;;;;;33.63;30.47;;;;;;;;;;5102798;28;20448;-84
2023/09/02 08:53:39;;;;;;;34.37;31.17;;;;;;;;;;5102455;28;20964;-84
2023/09/02 08:56:08;;;;;;;31.97;29.10;;;;;;;;;;5105628;28;20435;-85
2023/09/02 08:58:36;;;;;;;33.80;30.80;;;;;;;;;;5103406;28;20447;-86
2023/09/02 09:01:03;;;;;;;34.10;31.00;;;;;;;;;;5104153;28;20450;-83
2023/09/02 09:03:31;;;;;;;33.03;30.13;;;;;;;;;;5101796;28;20467;-84
2023/09/02 09:05:59;;;;;;;32.97;30.27;;;;;;;;;;5098989;28;20738;-82
2023/09/02 09:08:28;;;;;;;32.30;29.50;;;;;;;;;;5100994;28;20432;-82
2023/09/02 09:10:56;;;;;;;32.87;30.17;;;;;;;;;;5098589;28;20449;-82
2023/09/02 09:13:24;;;;;;;33.73;30.93;;;;;;;;;;5098165;28;21147;-84
2023/09/02 09:15:51;;;;;;;31.23;28.70;;;;;;;;;;5117361;28;20453;-86
2023/09/02 09:18:18;;;;;;;29.63;27.17;;;;;;;;;;5122072;27;20439;-82
2023/09/02 09:20:45;;;;;;;31.07;28.67;;;;;;;;;;5120702;28;20448;-82
2023/09/02 09:23:12;;;;;;;29.60;27.30;;;;;;;;;;5120586;28;21005;-83
2023/09/02 09:25:39;;;;;;;31.17;28.50;;;;;;;;;;5105643;28;20932;-82
2023/09/02 09:28:12;;;;;;;31.30;28.77;;;;;;;;;;5079943;28;20427;-82
2023/09/02 09:30:39;;;;;;;30.63;28.37;;;;;;;;;;5084210;28;20464;-85
2023/09/02 09:33:07;;;;;;;31.43;28.80;;;;;;;;;;5100276;28;20925;-85
2023/09/02 09:35:35;;;;;;;31.77;29.07;;;;;;;;;;5101216;28;20453;-85
2023/09/02 09:38:02;;;;;;;31.47;28.80;;;;;;;;;;5101949;28;20426;-85
2023/09/02 09:40:30;;;;;;;29.50;27.20;;;;;;;;;;5099514;28;20912;-85
2023/09/02 09:42:57;;;;;;;27.77;25.73;;;;;;;;;;5100747;28;21030;-85
2023/09/02 09:45:26;;;;;;;27.23;25.33;;;;;;;;;;5100603;28;20459;-86
2023/09/02 09:47:53;;;;;;;27.30;25.20;;;;;;;;;;5085473;28;20539;-85
2023/09/02 09:50:20;;;;;;;26.50;24.80;;;;;;;;;;5084626;28;20464;-86
2023/09/02 09:53:01;;;;;;;24.97;23.33;;;;;;;;;;5100703;28;20443;-85
2023/09/02 09:55:29;;;;;;;25.00;23.30;;;;;;;;;;5100615;28;20457;-86
2023/09/02 09:57:57;;;;;;;26.80;24.37;;;;;;;;;;5099244;28;20452;-86
2023/09/02 10:00:26;;;;;;;26.73;24.63;;;;;;;;;;5087760;28;20773;-85
2023/09/02 10:02:53;;;;;;;26.53;24.73;;;;;;;;;;5080237;28;20836;-85
2023/09/02 10:05:27;;;;;;;25.73;24.03;;;;;;;;;;5079557;28;20449;-85
2023/09/02 10:08:01;;;;;;;25.90;24.10;;;;;;;;;;5079612;28;20470;-85
2023/09/02 10:10:29;;;;;;;25.67;23.87;;;;;;;;;;5079180;28;20425;-86
2023/09/02 10:12:56;;;;;;;25.60;23.90;;;;;;;;;;5079650;28;20453;-85
2023/09/02 10:15:26;;;;;;;24.73;23.07;;;;;;;;;;5079812;28;20428;-86
2023/09/02 10:17:55;;;;;;;23.83;22.23;;;;;;;;;;5079099;28;20887;-86
2023/09/02 10:20:25;;;;;;;24.33;22.80;;;;;;;;;;5079689;28;20450;-86
2023/09/02 10:22:53;;;;;;;25.77;24.07;;;;;;;;;;5079870;28;20482;-86
2023/09/02 10:25:24;;;;;;;25.00;23.37;;;;;;;;;;5080748;28;20496;-85
2023/09/02 10:27:55;;;;;;;24.67;23.10;;;;;;;;;;5078063;28;20450;-84
2023/09/02 10:30:25;;;;;;;26.33;24.53;;;;;;;;;;5086737;28;20449;-85
2023/09/02 10:32:55;;;;;;;24.90;23.10;;;;;;;;;;5085205;28;20478;-86
2023/09/02 10:35:23;;;;;;;25.57;23.87;;;;;;;;;;5089220;28;20488;-84
2023/09/02 10:37:51;;;;;;;26.97;25.17;;;;;;;;;;5087131;28;20452;-81
2023/09/02 10:40:22;;;;;;;26.23;24.20;;;;;;;;;;5080971;28;20430;-84
2023/09/02 10:42:50;;;;;;;28.57;26.67;;;;;;;;;;5078976;28;20457;-83
2023/09/02 10:45:17;;;;;;;29.20;27.00;;;;;;;;;;5078513;28;20424;-85
2023/09/02 10:47:44;;;;;;;28.00;26.00;;;;;;;;;;5078731;28;20452;-84
2023/09/02 10:50:14;;;;;;;29.20;27.10;;;;;;;;;;5079260;28;21223;-84
2023/09/02 10:52:41;;;;;;;29.13;27.03;;;;;;;;;;5097097;28;20438;-85
2023/09/02 10:55:09;;;;;;;28.40;26.40;;;;;;;;;;5097219;28;20461;-84
2023/09/02 10:57:45;;;;;;;29.37;27.30;;;;;;;;;;5098719;28;20437;-84
2023/09/02 11:00:12;;;;;;;28.57;26.37;;;;;;;;;;5098311;28;20445;-85
2023/09/02 11:02:39;;;;;;;27.57;25.67;;;;;;;;;;5098461;28;20447;-84
2023/09/02 11:05:07;;;;;;;28.47;26.30;;;;;;;;;;5098603;28;20411;-83
2023/09/02 11:07:36;;;;;;;27.83;25.83;;;;;;;;;;5099255;28;20414;-85
2023/09/02 11:10:03;;;;;;;29.93;27.63;;;;;;;;;;5098671;28;20506;-84
2023/09/02 11:12:33;;;;;;;28.63;26.43;;;;;;;;;;5098800;28;20477;-85
2023/09/02 11:15:27;;;;;;;29.53;27.30;;;;;;;;;;5099766;28;20539;-84
2023/09/02 11:17:54;;;;;;;29.20;27.20;;;;;;;;;;5062620;28;20456;-83
2023/09/02 11:20:23;;;;;;;30.43;28.03;;;;;;;;;;5097247;28;20447;-84
2023/09/02 11:22:53;;;;;;;31.47;29.07;;;;;;;;;;5098752;28;20457;-82
2023/09/02 11:25:27;;;;;;;31.43;29.03;;;;;;;;;;5100014;28;20514;-83
2023/09/02 11:27:55;;;;;;;29.63;27.30;;;;;;;;;;5098594;28;20941;-83
2023/09/02 11:30:22;;;;;;;29.20;27.10;;;;;;;;;;5098052;28;20459;-83
2023/09/02 11:32:50;;;;;;;30.20;28.00;;;;;;;;;;5097840;28;20464;-83
2023/09/02 11:35:18;;;;;;;29.40;27.20;;;;;;;;;;5099250;28;20449;-84
2023/09/02 11:37:45;;;;;;;30.20;28.00;;;;;;;;;;5098958;28;20984;-85
2023/09/02 11:40:16;;;;;;;30.30;27.90;;;;;;;;;;5101169;28;20460;-85
2023/09/02 11:42:50;;;;;;;31.80;29.30;;;;;;;;;;5100037;28;20470;-86
2023/09/02 11:45:17;;;;;;;32.47;29.67;;;;;;;;;;5089937;28;20848;-83
2023/09/02 11:47:44;;;;;;;31.30;28.90;;;;;;;;;;5083503;28;20519;-86
2023/09/02 11:50:12;;;;;;;30.57;28.20;;;;;;;;;;5080668;28;20428;-82
2023/09/02 11:52:39;;;;;;;30.87;28.43;;;;;;;;;;5084156;28;20441;-82
2023/09/02 11:55:10;;;;;;;29.67;27.50;;;;;;;;;;5083307;28;20460;-82
2023/09/02 11:57:38;;;;;;;32.33;29.57;;;;;;;;;;5084487;28;20475;-82
2023/09/02 12:00:07;;;;;;;30.70;28.40;;;;;;;;;;5094689;28;20467;-82
2023/09/02 12:02:36;;;;;;;31.00;28.60;;;;;;;;;;5098332;28;20443;-81
2023/09/02 12:05:03;;;;;;;31.60;29.10;;;;;;;;;;5098631;28;20469;-82
2023/09/02 12:07:32;;;;;;;29.40;27.30;;;;;;;;;;5098475;28;20544;-82
2023/09/02 12:10:05;;;;;;;29.47;27.40;;;;;;;;;;5096847;28;20479;-83
2023/09/02 12:12:32;;;;;;;30.23;27.93;;;;;;;;;;5098356;28;20567;-83
2023/09/02 12:15:01;;;;;;;30.60;28.40;;;;;;;;;;5096741;28;20448;-83
2023/09/02 12:17:28;;;;;;;29.70;27.50;;;;;;;;;;5097982;28;20773;-83
2023/09/02 12:19:56;;;;;;;28.73;26.67;;;;;;;;;;5097669;28;20451;-83
2023/09/02 12:22:23;;;;;;;30.23;27.90;;;;;;;;;;5097613;28;20461;-82
2023/09/02 12:24:50;;;;;;;31.00;28.87;;;;;;;;;;5098136;28;20489;-82
2023/09/02 12:27:17;;;;;;;30.50;28.23;;;;;;;;;;5098095;28;20456;-83
2023/09/02 12:29:54;;;;;;;30.60;28.40;;;;;;;;;;5097079;28;20527;-82
2023/09/02 12:32:22;;;;;;;29.10;27.00;;;;;;;;;;5097735;28;20572;-82
2023/09/02 12:34:50;;;;;;;29.50;27.20;;;;;;;;;;5100478;28;20929;-83
2023/09/02 12:37:17;;;;;;;29.80;27.67;;;;;;;;;;5099773;28;20471;-82
2023/09/02 12:39:44;;;;;;;29.97;27.80;;;;;;;;;;5099372;28;20459;-83
2023/09/02 12:42:15;;;;;;;28.90;27.00;;;;;;;;;;5097235;28;20451;-82
2023/09/02 12:44:48;;;;;;;28.70;26.53;;;;;;;;;;5097531;28;20484;-83
2023/09/02 12:47:18;;;;;;;28.90;26.90;;;;;;;;;;5096832;28;20441;-83
2023/09/02 12:49:46;;;;;;;30.47;28.17;;;;;;;;;;5097459;28;20797;-83
2023/09/02 12:52:21;;;;;;;29.83;27.77;;;;;;;;;;5097854;28;20457;-83
2023/09/02 12:54:55;;;;;;;26.97;25.27;;;;;;;;;;5088584;28;20975;-82
2023/09/02 12:57:22;;;;;;;27.80;25.90;;;;;;;;;;5084503;28;20775;-83
2023/09/02 12:59:50;;;;;;;29.00;27.00;;;;;;;;;;5082167;28;20454;-83
2023/09/02 13:02:17;;;;;;;27.50;25.73;;;;;;;;;;5078784;28;20466;-82
2023/09/02 13:04:44;;;;;;;27.47;25.77;;;;;;;;;;5076437;28;20481;-82
2023/09/02 13:07:14;;;;;;;30.90;28.80;;;;;;;;;;5087177;28;20459;-84
2023/09/02 13:09:41;;;;;;;29.23;27.13;;;;;;;;;;5080321;28;20453;-83
2023/09/02 13:12:09;;;;;;;28.23;26.40;;;;;;;;;;5080666;28;20438;-85
2023/09/02 13:14:38;;;;;;;29.67;27.70;;;;;;;;;;5080490;28;20431;-83
2023/09/02 13:17:05;;;;;;;30.17;28.17;;;;;;;;;;5080038;28;20421;-83
2023/09/02 13:19:32;;;;;;;30.23;28.13;;;;;;;;;;5081718;28;20550;-84
2023/09/02 13:22:01;;;;;;;28.33;26.43;;;;;;;;;;5089428;28;20441;-82
2023/09/02 13:24:31;;;;;;;30.80;28.27;;;;;;;;;;5096141;28;20519;-82
2023/09/02 13:27:00;;;;;;;29.67;27.67;;;;;;;;;;5096321;28;20441;-85
2023/09/02 13:29:28;;;;;;;31.40;29.30;;;;;;;;;;5097093;28;20444;-85
2023/09/02 13:31:56;;;;;;;31.87;29.77;;;;;;;;;;5097193;27;20699;-84
2023/09/02 13:34:26;;;;;;;29.67;27.77;;;;;;;;;;5080664;28;20457;-83
2023/09/02 13:36:55;;;;;;;29.70;27.63;;;;;;;;;;5085059;28;20831;-81
2023/09/02 13:39:22;;;;;;;30.83;28.53;;;;;;;;;;5089441;28;20449;-81
2023/09/02 13:41:51;;;;;;;30.97;28.87;;;;;;;;;;5093571;28;20460;-81
2023/09/02 13:44:18;;;;;;;31.03;29.03;;;;;;;;;;5094272;28;20496;-81
2023/09/02 13:46:45;;;;;;;28.63;26.80;;;;;;;;;;5094940;28;20808;-81
2023/09/02 13:49:13;;;;;;;28.50;26.80;;;;;;;;;;5094933;28;20952;-81
2023/09/02 13:51:40;;;;;;;30.63;28.50;;;;;;;;;;5094609;28;20454;-81
2023/09/02 13:54:07;;;;;;;28.10;26.30;;;;;;;;;;5095277;28;20465;-81
2023/09/02 13:56:34;;;;;;;29.13;27.33;;;;;;;;;;5094781;28;20781;-81
2023/09/02 13:59:03;;;;;;;29.67;27.77;;;;;;;;;;5094780;28;20952;-81
2023/09/02 14:01:30;;;;;;;28.97;27.10;;;;;;;;;;5094407;28;20462;-81
2023/09/02 14:03:58;;;;;;;29.63;27.60;;;;;;;;;;5094783;28;20525;-81
2023/09/02 14:06:25;;;;;;;30.83;28.77;;;;;;;;;;5094581;28;21276;-81
2023/09/02 14:08:52;;;;;;;32.27;30.13;;;;;;;;;;5094100;28;20448;-81
2023/09/02 14:11:19;;;;;;;33.00;30.70;;;;;;;;;;5094659;28;20453;-81
2023/09/02 14:13:47;;;;;;;32.80;30.30;;;;;;;;;;5093941;28;20469;-81
2023/09/02 14:16:15;;;;;;;32.70;30.40;;;;;;;;;;5095087;28;20441;-82
2023/09/02 14:18:42;;;;;;;32.47;30.07;;;;;;;;;;5094499;28;20422;-81
2023/09/02 14:21:09;;;;;;;33.07;30.87;;;;;;;;;;5093492;28;20437;-81